Hlavní strana
METAR-TAF:

METAR-TAF

Letiště :

Ushuaia, Argentina

zeměpisná šířka: 54-48S, zeměpisná délka: 068-19W, výška: 16 m

Aktuální stav počasí

Zpráva byla vytvořena před 19 minutami, v 00:00 UTC
Západojihozápadní vítr 16 kt
Teplota 9°C
Vlhkost vzduchu 71%
Tlak 999 hPa
Viditelnost 10 km a více
Polojasno ve výšce 4000 ft

METAR: SAWH 180000Z 25016KT 9999 SCT040 09/04 Q0999

Čas: 21:19 (00:19 UTC)

Předpověď počasí

Zpráva byla vytvořena před 1 hodinou a 19 minutami, v 23:00 UTC
Předpověď platná od 18 v 00 UTC do 18 v 24 UTC
Západní vítr 18 kt
Viditelnost 10 km a více
Polojasno ve výšce 4000 ft
Oblačno až skoro zataženo ve výšce 5000 ft
Změna
od 18 v 14 UTC do 18 v 16 UTC
Jihozápadní vítr 20 kt s nárazy do 35 kt

TAF: SAWH 172300Z 1800/1824 27018KT 9999 SCT040 BKN050 TX15/1819Z TN04/1812Z BECMG 1814/1816 23020G35KT

Stav a předpovědi počasí z více než 4 000 letišť (zprávy METAR a TAF).

Červené a žluté tečky na mapě představují dostupné meteorologické stanice.

Když kurzor umístíte na tečku, zobrazí se název stanice.

Pak kliknutím zobrazíte stav a předpověď počasí.

Chcete-li změnit mapu, kliknutím na zelené tlačítko se znaménkem +mapu přiblížíte, kliknutím na zelené tlačítko se znaménkem – mapu oddálíte a kliknutím na zelené šipky přejdete na sousední mapy.


METAR-TAF: